Seabourn Spirit — C6FR4 — position and weather

sailwx.info

Track history (hours):
 
Tides and Currents Weather Stations Pressure Air Temp Water Temp Dewpoint Dewpoint Depression Visibility Wind Speed Wind Dir Waves Ship Positions

Seabourn Spirit

Operator: Cunard Seabourn

Last reported at 2017-Jul-22 04:29 UTC. Time now 2017-Jul-22 12:39 UTC.
Position N 43°42' E 007°27'.

Length 133 m; draft 5.5 m.

Type: Ship. MMSI: 311083000.

Date/timePositionNaut miles runAvg speedWind from/ knotsBaromVisibWave heightAir tempDewpointWater temp
2017-Jul-22 04:29N 43°42' E 007°27'4 8.0
2017-Jul-22 04:00N 43°38' E 007°26'3 6.2
2017-Jul-22 03:30N 43°36' E 007°23'3 6.1
2017-Jul-22 03:00N 43°34' E 007°20'2 2.9
2017-Jul-22 02:27N 43°33' E 007°18'0 1.0
2017-Jul-22 02:00N 43°34' E 007°18'1 1.1
2017-Jul-22 01:30N 43°34' E 007°19'1 1.1
2017-Jul-22 01:00N 43°34' E 007°20'1 1.2
2017-Jul-22 00:30N 43°35' E 007°20'1 1.3
2017-Jul-22 00:00N 43°35' E 007°21'1 1.4
2017-Jul-21 23:30N 43°35' E 007°22'1 1.2
2017-Jul-21 23:00N 43°36' E 007°23'1 2.5
2017-Jul-21 22:30N 43°36' E 007°21'3 5.2
2017-Jul-21 22:00N 43°38' E 007°18'2 4.0
2017-Jul-21 21:30N 43°40' E 007°17'2 2.0
2017-Jul-21 20:43N 43°42' E 007°17'0 0.0
2017-Jul-21 20:28N 43°42' E 007°17'0 0.0
2017-Jul-21 19:49N 43°42' E 007°17'0 0.0
2017-Jul-21 19:28N 43°42' E 007°17'0 0.0
2017-Jul-21 18:49N 43°42' E 007°17'0 0.0
2017-Jul-21 18:19N 43°42' E 007°17'0 0.0
2017-Jul-21 17:49N 43°42' E 007°17'0 0.0
2017-Jul-21 17:19N 43°42' E 007°17'0 0.0
2017-Jul-21 16:37N 43°42' E 007°17'0 0.0
2017-Jul-21 07:31N 43°42' E 007°17'0 0.0
2017-Jul-21 07:28N 43°42' E 007°17'1 0.3
2017-Jul-21 03:47N 43°40' E 007°17'2 6.8
2017-Jul-21 03:25N 43°38' E 007°16'3 8.0
2017-Jul-21 03:00N 43°35' E 007°13'4 8.1
2017-Jul-21 02:30N 43°32' E 007°11'4 8.2
2017-Jul-21 02:00N 43°28' E 007°08'4 7.9
2017-Jul-21 01:29N 43°25' E 007°04'5 7.8
2017-Jul-21 00:53N 43°21' E 007°00'3 7.9
2017-Jul-21 00:30N 43°19' E 006°58'4 7.9
2017-Jul-20 23:57N 43°16' E 006°54'3 7.9
2017-Jul-20 23:30N 43°13' E 006°50'6 8.1
2017-Jul-20 22:47N 43°09' E 006°45'7 8.3
2017-Jul-20 22:00N 43°04' E 006°39'4 8.1
2017-Jul-20 21:30N 43°00' E 006°36'6 7.9
2017-Jul-20 20:46N 42°56' E 006°30'2 7.6
2017-Jul-20 20:29N 42°55' E 006°28'4 8.1
2017-Jul-20 19:59N 42°55' E 006°22'4 8.2
2017-Jul-20 19:30N 42°55' E 006°17'4 8.1
2017-Jul-20 19:00N 42°55' E 006°11'9 8.3
2017-Jul-20 17:59N 42°57' E 006°00'14 7.9
2017-Jul-20 16:12N 43°05' E 005°45'21 1.6
2017-Jul-20 02:23N 42°53' E 005°20'512.0
2017-Jul-20 01:59N 42°50' E 005°15'612.0
2017-Jul-20 01:30N 42°47' E 005°08'611.8
2017-Jul-20 01:00N 42°44' E 005°01'611.9
2017-Jul-20 00:30N 42°41' E 004°55'611.8
2017-Jul-19 23:59N 42°37' E 004°48'611.6
2017-Jul-19 23:30N 42°34' E 004°41'611.6
2017-Jul-19 23:01N 42°31' E 004°35'611.4
2017-Jul-19 22:30N 42°28' E 004°29'611.3
2017-Jul-19 22:00N 42°25' E 004°22'5 9.9
2017-Jul-19 21:28N 42°22' E 004°16'4 8.8
2017-Jul-19 20:58N 42°19' E 004°11'4 9.0
2017-Jul-19 20:30N 42°17' E 004°06'510.4
2017-Jul-19 20:00N 42°14' E 004°01'611.6
2017-Jul-19 19:30N 42°10' E 003°55'611.8
2017-Jul-19 19:00N 42°07' E 003°48'611.8
2017-Jul-19 18:30N 42°03' E 003°42'612.1
2017-Jul-19 17:59N 42°00' E 003°34'612.6
2017-Jul-19 17:29N 41°57' E 003°27'612.9
2017-Jul-19 17:00N 41°53' E 003°20'812.9
2017-Jul-19 16:21N 41°50' E 003°10'2 0.3
2017-Jul-19 10:48N 41°51' E 003°07'0 0.0
2017-Jul-19 10:30N 41°51' E 003°07'0 0.0
2017-Jul-19 09:18N 41°51' E 003°07'0 0.0
2017-Jul-19 08:54N 41°51' E 003°07'0 0.0
2017-Jul-19 07:58N 41°51' E 003°07'0 0.0
2017-Jul-19 05:34N 41°51' E 003°07'0 0.0
2017-Jul-19 05:28N 41°51' E 003°07'1 1.1
2017-Jul-19 04:58N 41°50' E 003°07'3 6.2
2017-Jul-19 04:28N 41°47' E 003°06'3 6.1
2017-Jul-19 03:58N 41°44' E 003°05'2 4.6
2017-Jul-19 03:30N 41°42' E 003°04'3 4.3
2017-Jul-19 02:49N 41°40' E 003°02'2 4.6
2017-Jul-19 02:29N 41°39' E 003°00'3 5.8
2017-Jul-19 02:00N 41°37' E 002°57'4 6.3
2017-Jul-19 01:19N 41°35' E 002°52'2 6.5
2017-Jul-19 01:00N 41°34' E 002°50'3 6.5
2017-Jul-19 00:30N 41°33' E 002°46'3 5.9
2017-Jul-18 23:56N 41°31' E 002°42'2 3.7
2017-Jul-18 23:29N 41°30' E 002°40'2 3.7
2017-Jul-18 22:59N 41°30' E 002°38'2 3.8
2017-Jul-18 22:29N 41°29' E 002°35'2 3.7
2017-Jul-18 22:00N 41°28' E 002°33'2 4.4
2017-Jul-18 21:27N 41°27' E 002°30'2 3.3
2017-Jul-18 21:00N 41°26' E 002°28'2 3.4
2017-Jul-18 20:28N 41°25' E 002°27'2 3.3
2017-Jul-18 20:00N 41°25' E 002°25'2 3.3
2017-Jul-18 19:28N 41°24' E 002°23'2 3.3
2017-Jul-18 19:00N 41°23' E 002°21'3 3.9
2017-Jul-18 18:17N 41°22' E 002°18'1 4.0
2017-Jul-18 17:59N 41°21' E 002°16'2 4.3
2017-Jul-18 17:26N 41°20' E 002°14'2 4.8
2017-Jul-18 17:00N 41°21' E 002°11'1 0.6
2017-Jul-18 14:45N 41°22' E 002°11'0 0.0
2017-Jul-18 13:27N 41°22' E 002°11'0 0.0
2017-Jul-18 09:57N 41°22' E 002°11'0 0.0
2017-Jul-18 07:51N 41°22' E 002°11'0 0.0
2017-Jul-18 07:27N 41°22' E 002°11'0 0.0
2017-Jul-18 07:00N 41°22' E 002°11'0 0.0
2017-Jul-18 06:29N 41°22' E 002°11'0 0.0
2017-Jul-18 05:56N 41°22' E 002°11'0 0.0
2017-Jul-18 05:30N 41°22' E 002°11'1 2.3
2017-Jul-18 04:56N 41°21' E 002°11'4 8.4
2017-Jul-18 04:25N 41°18' E 002°16'3 7.1
2017-Jul-18 03:59N 41°16' E 002°17'3 6.9
2017-Jul-18 03:29N 41°12' E 002°16'4 7.8
2017-Jul-18 02:59N 41°08' E 002°16'5 8.6
2017-Jul-18 02:23N 41°03' E 002°16'4 9.6
2017-Jul-18 01:59N 40°59' E 002°16'510.1
2017-Jul-18 01:29N 40°54' E 002°16'510.1
2017-Jul-18 00:59N 40°49' E 002°16'510.0
2017-Jul-18 00:30N 40°44' E 002°16'510.1
2017-Jul-18 00:00N 40°39' E 002°16'510.0
2017-Jul-17 23:29N 40°34' E 002°16'510.0
2017-Jul-17 23:00N 40°29' E 002°16'510.0
2017-Jul-17 22:27N 40°24' E 002°16'410.1
2017-Jul-17 22:00N 40°19' E 002°16'610.2
2017-Jul-17 21:28N 40°14' E 002°16'510.2
2017-Jul-17 21:00N 40°09' E 002°16'510.1
2017-Jul-17 20:30N 40°04' E 002°17'510.2
2017-Jul-17 19:59N 39°59' E 002°17'510.2
2017-Jul-17 19:30N 39°54' E 002°16'510.6
2017-Jul-17 19:00N 39°49' E 002°16'510.6
2017-Jul-17 18:29N 39°43' E 002°16'610.7
2017-Jul-17 17:58N 39°38' E 002°16'610.4
2017-Jul-17 17:23N 39°32' E 002°18'410.3
2017-Jul-17 17:00N 39°29' E 002°22'510.5
2017-Jul-17 16:30N 39°26' E 002°27'5 9.7
2017-Jul-17 16:00N 39°26' E 002°33'5 9.7
2017-Jul-17 15:30N 39°30' E 002°37'3 6.1
2017-Jul-17 15:00N 39°33' E 002°38'0 0.1
2017-Jul-17 14:30N 39°33' E 002°38'0 0.0
2017-Jul-17 14:00N 39°33' E 002°38'0 0.0
2017-Jul-17 13:24N 39°33' E 002°38'0 0.0
2017-Jul-17 13:00N 39°33' E 002°38'0 0.0
2017-Jul-17 12:30N 39°33' E 002°38'0 0.0
2017-Jul-17 11:57N 39°33' E 002°38'0 0.0
2017-Jul-17 11:30N 39°33' E 002°38'0 0.0
2017-Jul-17 11:00N 39°33' E 002°38'0 0.0
2017-Jul-17 10:30N 39°33' E 002°38'0 0.0
2017-Jul-17 10:00N 39°33' E 002°38'0 0.0
2017-Jul-17 09:30N 39°33' E 002°38'0 0.0
2017-Jul-17 09:00N 39°33' E 002°38'0 0.0
2017-Jul-17 08:30N 39°33' E 002°38'0 0.0
2017-Jul-17 07:59N 39°33' E 002°38'0 0.0
2017-Jul-17 07:29N 39°33' E 002°38'0 0.0
2017-Jul-17 06:59N 39°33' E 002°38'0 0.0
2017-Jul-17 06:30N 39°33' E 002°38'0 0.0
2017-Jul-17 05:58N 39°33' E 002°38'0 0.0
2017-Jul-17 05:30N 39°33' E 002°38'0 0.8
2017-Jul-17 05:00N 39°33' E 002°38'4 8.1
2017-Jul-17 04:30N 39°29' E 002°37'612.0
2017-Jul-17 04:00N 39°23' E 002°35'5 9.8
2017-Jul-17 03:30N 39°19' E 002°31'5 9.7
2017-Jul-17 03:00N 39°15' E 002°28'5 9.7
2017-Jul-17 02:30N 39°11' E 002°24'5 9.7
2017-Jul-17 02:00N 39°07' E 002°21'5 9.8
2017-Jul-17 01:30N 39°03' E 002°17'5 9.9
2017-Jul-17 00:59N 38°59' E 002°13'510.0
2017-Jul-17 00:30N 38°55' E 002°10'510.2
2017-Jul-17 00:00N 38°51' E 002°06'510.2
2017-Jul-16 23:28N 38°46' E 002°02'710.1
2017-Jul-16 22:48N 38°41' E 001°57'310.1
2017-Jul-16 22:29N 38°38' E 001°55'610.1
2017-Jul-16 21:55N 38°34' E 001°51'710.1
2017-Jul-16 21:12N 38°28' E 001°44'310.4
2017-Jul-16 20:56N 38°27' E 001°41'610.4
2017-Jul-16 20:21N 38°23' E 001°35'410.4
2017-Jul-16 20:01N 38°21' E 001°31'710.5
2017-Jul-16 19:22N 38°18' E 001°24'410.4
2017-Jul-16 18:59N 38°15' E 001°20'1512.0
2017-Jul-16 17:45N 38°07' E 001°04'5212.3
2017-Jul-16 13:30N 37°38' E 000°09'  
Track history (hours):
 
Tides and Currents Weather Stations Pressure Air Temp Water Temp Dewpoint Dewpoint Depression Visibility Wind Speed Wind Dir Waves Ship Positions

Seabourn Spirit

Operator: Cunard Seabourn

Last reported at 2017-Jul-22 04:29 UTC. Time now 2017-Jul-22 12:39 UTC.
Position N 43°42' E 007°27'.

Length 133 m; draft 5.5 m.

Type: Ship. MMSI: 311083000.

Date/timePositionNaut miles runAvg speedWind from/ knotsBaromVisibWave heightAir tempDewpointWater temp
2017-Jul-22 04:29N 43°42' E 007°27'4 8.0
2017-Jul-22 04:00N 43°38' E 007°26'3 6.2
2017-Jul-22 03:30N 43°36' E 007°23'3 6.1
2017-Jul-22 03:00N 43°34' E 007°20'2 2.9
2017-Jul-22 02:27N 43°33' E 007°18'0 1.0
2017-Jul-22 02:00N 43°34' E 007°18'1 1.1
2017-Jul-22 01:30N 43°34' E 007°19'1 1.1
2017-Jul-22 01:00N 43°34' E 007°20'1 1.2
2017-Jul-22 00:30N 43°35' E 007°20'1 1.3
2017-Jul-22 00:00N 43°35' E 007°21'1 1.4
2017-Jul-21 23:30N 43°35' E 007°22'1 1.2
2017-Jul-21 23:00N 43°36' E 007°23'1 2.5
2017-Jul-21 22:30N 43°36' E 007°21'3 5.2
2017-Jul-21 22:00N 43°38' E 007°18'2 4.0
2017-Jul-21 21:30N 43°40' E 007°17'2 2.0
2017-Jul-21 20:43N 43°42' E 007°17'0 0.0
2017-Jul-21 20:28N 43°42' E 007°17'0 0.0
2017-Jul-21 19:49N 43°42' E 007°17'0 0.0
2017-Jul-21 19:28N 43°42' E 007°17'0 0.0
2017-Jul-21 18:49N 43°42' E 007°17'0 0.0
2017-Jul-21 18:19N 43°42' E 007°17'0 0.0
2017-Jul-21 17:49N 43°42' E 007°17'0 0.0
2017-Jul-21 17:19N 43°42' E 007°17'0 0.0
2017-Jul-21 16:37N 43°42' E 007°17'0 0.0
2017-Jul-21 07:31N 43°42' E 007°17'0 0.0
2017-Jul-21 07:28N 43°42' E 007°17'1 0.3
2017-Jul-21 03:47N 43°40' E 007°17'2 6.8
2017-Jul-21 03:25N 43°38' E 007°16'3 8.0
2017-Jul-21 03:00N 43°35' E 007°13'4 8.1
2017-Jul-21 02:30N 43°32' E 007°11'4 8.2
2017-Jul-21 02:00N 43°28' E 007°08'4 7.9
2017-Jul-21 01:29N 43°25' E 007°04'5 7.8
2017-Jul-21 00:53N 43°21' E 007°00'3 7.9
2017-Jul-21 00:30N 43°19' E 006°58'4 7.9
2017-Jul-20 23:57N 43°16' E 006°54'3 7.9
2017-Jul-20 23:30N 43°13' E 006°50'6 8.1
2017-Jul-20 22:47N 43°09' E 006°45'7 8.3
2017-Jul-20 22:00N 43°04' E 006°39'4 8.1
2017-Jul-20 21:30N 43°00' E 006°36'6 7.9
2017-Jul-20 20:46N 42°56' E 006°30'2 7.6
2017-Jul-20 20:29N 42°55' E 006°28'4 8.1
2017-Jul-20 19:59N 42°55' E 006°22'4 8.2
2017-Jul-20 19:30N 42°55' E 006°17'4 8.1
2017-Jul-20 19:00N 42°55' E 006°11'9 8.3
2017-Jul-20 17:59N 42°57' E 006°00'14 7.9
2017-Jul-20 16:12N 43°05' E 005°45'21 1.6
2017-Jul-20 02:23N 42°53' E 005°20'512.0
2017-Jul-20 01:59N 42°50' E 005°15'612.0
2017-Jul-20 01:30N 42°47' E 005°08'611.8
2017-Jul-20 01:00N 42°44' E 005°01'611.9
2017-Jul-20 00:30N 42°41' E 004°55'611.8
2017-Jul-19 23:59N 42°37' E 004°48'611.6
2017-Jul-19 23:30N 42°34' E 004°41'611.6
2017-Jul-19 23:01N 42°31' E 004°35'611.4
2017-Jul-19 22:30N 42°28' E 004°29'611.3
2017-Jul-19 22:00N 42°25' E 004°22'5 9.9
2017-Jul-19 21:28N 42°22' E 004°16'4 8.8
2017-Jul-19 20:58N 42°19' E 004°11'4 9.0
2017-Jul-19 20:30N 42°17' E 004°06'510.4
2017-Jul-19 20:00N 42°14' E 004°01'611.6
2017-Jul-19 19:30N 42°10' E 003°55'611.8
2017-Jul-19 19:00N 42°07' E 003°48'611.8
2017-Jul-19 18:30N 42°03' E 003°42'612.1
2017-Jul-19 17:59N 42°00' E 003°34'612.6
2017-Jul-19 17:29N 41°57' E 003°27'612.9
2017-Jul-19 17:00N 41°53' E 003°20'812.9
2017-Jul-19 16:21N 41°50' E 003°10'2 0.3
2017-Jul-19 10:48N 41°51' E 003°07'0 0.0
2017-Jul-19 10:30N 41°51' E 003°07'0 0.0
2017-Jul-19 09:18N 41°51' E 003°07'0 0.0
2017-Jul-19 08:54N 41°51' E 003°07'0 0.0
2017-Jul-19 07:58N 41°51' E 003°07'0 0.0
2017-Jul-19 05:34N 41°51' E 003°07'0 0.0
2017-Jul-19 05:28N 41°51' E 003°07'1 1.1
2017-Jul-19 04:58N 41°50' E 003°07'3 6.2
2017-Jul-19 04:28N 41°47' E 003°06'3 6.1
2017-Jul-19 03:58N 41°44' E 003°05'2 4.6
2017-Jul-19 03:30N 41°42' E 003°04'3 4.3
2017-Jul-19 02:49N 41°40' E 003°02'2 4.6
2017-Jul-19 02:29N 41°39' E 003°00'3 5.8
2017-Jul-19 02:00N 41°37' E 002°57'4 6.3
2017-Jul-19 01:19N 41°35' E 002°52'2 6.5
2017-Jul-19 01:00N 41°34' E 002°50'3 6.5
2017-Jul-19 00:30N 41°33' E 002°46'3 5.9
2017-Jul-18 23:56N 41°31' E 002°42'2 3.7
2017-Jul-18 23:29N 41°30' E 002°40'2 3.7
2017-Jul-18 22:59N 41°30' E 002°38'2 3.8
2017-Jul-18 22:29N 41°29' E 002°35'2 3.7
2017-Jul-18 22:00N 41°28' E 002°33'2 4.4
2017-Jul-18 21:27N 41°27' E 002°30'2 3.3
2017-Jul-18 21:00N 41°26' E 002°28'2 3.4
2017-Jul-18 20:28N 41°25' E 002°27'2 3.3
2017-Jul-18 20:00N 41°25' E 002°25'2 3.3
2017-Jul-18 19:28N 41°24' E 002°23'2 3.3
2017-Jul-18 19:00N 41°23' E 002°21'3 3.9
2017-Jul-18 18:17N 41°22' E 002°18'1 4.0
2017-Jul-18 17:59N 41°21' E 002°16'2 4.3
2017-Jul-18 17:26N 41°20' E 002°14'2 4.8
2017-Jul-18 17:00N 41°21' E 002°11'1 0.6
2017-Jul-18 14:45N 41°22' E 002°11'0 0.0
2017-Jul-18 13:27N 41°22' E 002°11'0 0.0
2017-Jul-18 09:57N 41°22' E 002°11'0 0.0
2017-Jul-18 07:51N 41°22' E 002°11'0 0.0
2017-Jul-18 07:27N 41°22' E 002°11'0 0.0
2017-Jul-18 07:00N 41°22' E 002°11'0 0.0
2017-Jul-18 06:29N 41°22' E 002°11'0 0.0
2017-Jul-18 05:56N 41°22' E 002°11'0 0.0
2017-Jul-18 05:30N 41°22' E 002°11'1 2.3
2017-Jul-18 04:56N 41°21' E 002°11'4 8.4
2017-Jul-18 04:25N 41°18' E 002°16'3 7.1
2017-Jul-18 03:59N 41°16' E 002°17'3 6.9
2017-Jul-18 03:29N 41°12' E 002°16'4 7.8
2017-Jul-18 02:59N 41°08' E 002°16'5 8.6
2017-Jul-18 02:23N 41°03' E 002°16'4 9.6
2017-Jul-18 01:59N 40°59' E 002°16'510.1
2017-Jul-18 01:29N 40°54' E 002°16'510.1
2017-Jul-18 00:59N 40°49' E 002°16'510.0
2017-Jul-18 00:30N 40°44' E 002°16'510.1
2017-Jul-18 00:00N 40°39' E 002°16'510.0
2017-Jul-17 23:29N 40°34' E 002°16'510.0
2017-Jul-17 23:00N 40°29' E 002°16'510.0
2017-Jul-17 22:27N 40°24' E 002°16'410.1
2017-Jul-17 22:00N 40°19' E 002°16'610.2
2017-Jul-17 21:28N 40°14' E 002°16'510.2
2017-Jul-17 21:00N 40°09' E 002°16'510.1
2017-Jul-17 20:30N 40°04' E 002°17'510.2
2017-Jul-17 19:59N 39°59' E 002°17'510.2
2017-Jul-17 19:30N 39°54' E 002°16'510.6
2017-Jul-17 19:00N 39°49' E 002°16'510.6
2017-Jul-17 18:29N 39°43' E 002°16'610.7
2017-Jul-17 17:58N 39°38' E 002°16'610.4
2017-Jul-17 17:23N 39°32' E 002°18'410.3
2017-Jul-17 17:00N 39°29' E 002°22'510.5
2017-Jul-17 16:30N 39°26' E 002°27'5 9.7
2017-Jul-17 16:00N 39°26' E 002°33'5 9.7
2017-Jul-17 15:30N 39°30' E 002°37'3 6.1
2017-Jul-17 15:00N 39°33' E 002°38'0 0.1
2017-Jul-17 14:30N 39°33' E 002°38'0 0.0
2017-Jul-17 14:00N 39°33' E 002°38'0 0.0
2017-Jul-17 13:24N 39°33' E 002°38'0 0.0
2017-Jul-17 13:00N 39°33' E 002°38'0 0.0
2017-Jul-17 12:30N 39°33' E 002°38'0 0.0
2017-Jul-17 11:57N 39°33' E 002°38'0 0.0
2017-Jul-17 11:30N 39°33' E 002°38'0 0.0
2017-Jul-17 11:00N 39°33' E 002°38'0 0.0
2017-Jul-17 10:30N 39°33' E 002°38'0 0.0
2017-Jul-17 10:00N 39°33' E 002°38'0 0.0
2017-Jul-17 09:30N 39°33' E 002°38'0 0.0
2017-Jul-17 09:00N 39°33' E 002°38'0 0.0
2017-Jul-17 08:30N 39°33' E 002°38'0 0.0
2017-Jul-17 07:59N 39°33' E 002°38'0 0.0
2017-Jul-17 07:29N 39°33' E 002°38'0 0.0
2017-Jul-17 06:59N 39°33' E 002°38'0 0.0
2017-Jul-17 06:30N 39°33' E 002°38'0 0.0
2017-Jul-17 05:58N 39°33' E 002°38'0 0.0
2017-Jul-17 05:30N 39°33' E 002°38'0 0.8
2017-Jul-17 05:00N 39°33' E 002°38'4 8.1
2017-Jul-17 04:30N 39°29' E 002°37'612.0
2017-Jul-17 04:00N 39°23' E 002°35'5 9.8
2017-Jul-17 03:30N 39°19' E 002°31'5 9.7
2017-Jul-17 03:00N 39°15' E 002°28'5 9.7
2017-Jul-17 02:30N 39°11' E 002°24'5 9.7
2017-Jul-17 02:00N 39°07' E 002°21'5 9.8
2017-Jul-17 01:30N 39°03' E 002°17'5 9.9
2017-Jul-17 00:59N 38°59' E 002°13'510.0
2017-Jul-17 00:30N 38°55' E 002°10'510.2
2017-Jul-17 00:00N 38°51' E 002°06'510.2
2017-Jul-16 23:28N 38°46' E 002°02'710.1
2017-Jul-16 22:48N 38°41' E 001°57'310.1
2017-Jul-16 22:29N 38°38' E 001°55'610.1
2017-Jul-16 21:55N 38°34' E 001°51'710.1
2017-Jul-16 21:12N 38°28' E 001°44'310.4
2017-Jul-16 20:56N 38°27' E 001°41'610.4
2017-Jul-16 20:21N 38°23' E 001°35'410.4
2017-Jul-16 20:01N 38°21' E 001°31'710.5
2017-Jul-16 19:22N 38°18' E 001°24'410.4
2017-Jul-16 18:59N 38°15' E 001°20'1512.0
2017-Jul-16 17:45N 38°07' E 001°04'5212.3
2017-Jul-16 13:30N 37°38' E 000°09'  

Dump ship's entire track history